UKLR/RWN METAR and TAF weather

Enter ICAO airport designator
Station Type Date Time Source
UKLR METAR 2018/12/10 12:30 UTC NOAA

UKLR 101230Z 24006MPS 9999 BKN032CB 04/03 Q1002 NOSIG


Station Type Date Time Source
UKLR Decoded METAR 2018/12/10 12:30 UTC NOAA

Rivne, Ukraine (UKLR) 50-35N 026-08E
Dec 10, 2018 - 07:30 AM EST / 2018.12.10 1230 UTC
Wind: from the WSW (240 degrees) at 13 MPH (12 KT):0
Visibility: greater than 7 mile(s):0
Sky conditions: mostly cloudy
Weather: Cumulonimbus clouds observed
Temperature: 39 F (4 C)
Dew Point: 37 F (3 C)
Relative Humidity: 93%
Pressure (altimeter): 29.59 in. Hg (1002 hPa)
ob: UKLR 101230Z 24006MPS 9999 BKN032CB 04/03 Q1002 NOSIG
cycle: 12

Station Type Date Time Source
UKLR TAF 2018/11/09 06:33 UTC NOAA

TAF
AMD TAF
AMD UKLR 090628Z 0906/0918 14003MPS 5000 BR BKN010 TX10/0913Z TN00/0906Z
TEMPO 0906/0909 1000 BR BKN003
TEMPO 0909/0918 16006MPS


Example: see airport list